createdAt,value
2019-01-02T00:02:31.918Z,18.57
2019-01-02T00:06:34.322Z,19.33
2019-01-02T00:10:36.777Z,18.83
2019-01-02T00:14:39.151Z,16.77
2019-01-02T00:18:41.542Z,23.40
2019-01-02T00:22:43.901Z,20.77
2019-01-02T00:26:46.417Z,20.50
2019-01-02T00:30:48.772Z,17.37
2019-01-02T00:34:51.082Z,23.40
2019-01-02T00:38:54.262Z,19.53
2019-01-02T00:42:56.678Z,17.63
2019-01-02T00:46:59.027Z,18.00
2019-01-02T00:51:01.325Z,16.87
2019-01-02T00:55:04.397Z,21.73
2019-01-02T00:59:06.684Z,20.17
2019-01-02T01:03:09.038Z,16.63
2019-01-02T01:07:13.012Z,18.00
2019-01-02T01:11:15.334Z,13.97
2019-01-02T01:15:17.716Z,23.30
2019-01-02T01:19:20.095Z,17.90
2019-01-02T01:23:22.461Z,17.37
2019-01-02T01:27:24.826Z,16.53
2019-01-02T01:31:27.168Z,12.50
2019-01-02T01:35:29.529Z,21.37
2019-01-02T01:39:31.888Z,10.70
2019-01-02T01:43:34.210Z,20.60
2019-01-02T01:47:36.675Z,19.50
2019-01-02T01:51:39.049Z,22.80
2019-01-02T01:55:41.457Z,22.57
2019-01-02T01:59:43.939Z,21.13
2019-01-02T02:03:46.288Z,20.17
2019-01-02T02:07:48.639Z,15.63
2019-01-02T02:11:50.985Z,24.37
2019-01-02T02:15:53.369Z,22.53
2019-01-02T02:19:55.695Z,20.57
2019-01-02T02:23:58.031Z,22.53
2019-01-02T02:28:00.446Z,19.67
2019-01-02T02:32:02.836Z,28.27
2019-01-02T02:36:05.229Z,22.13
2019-01-02T02:40:08.949Z,29.13
2019-01-02T02:44:11.300Z,20.60
2019-01-02T02:48:13.676Z,21.47
2019-01-02T02:52:16.040Z,22.53
2019-01-02T02:56:18.390Z,31.47
2019-01-02T03:00:20.784Z,25.53
2019-01-02T03:04:23.114Z,25.70
2019-01-02T03:08:25.448Z,23.97
2019-01-02T03:12:27.799Z,26.07
2019-01-02T03:16:30.169Z,19.10
2019-01-02T03:20:32.554Z,29.77
2019-01-02T03:24:34.886Z,23.83
2019-01-02T03:28:37.255Z,25.70
2019-01-02T03:32:39.647Z,29.10
2019-01-02T03:36:42.044Z,27.83
2019-01-02T03:40:44.400Z,24.27
2019-01-02T03:44:46.747Z,28.57
2019-01-02T03:48:49.123Z,19.27
2019-01-02T03:52:51.520Z,26.13
2019-01-02T03:56:53.872Z,27.03
2019-01-02T04:00:56.214Z,17.83
2019-01-02T04:04:59.117Z,16.37
2019-01-02T04:09:01.493Z,18.23
2019-01-02T04:13:03.940Z,23.77
2019-01-02T04:17:06.279Z,19.27
2019-01-02T04:21:08.617Z,31.13
2019-01-02T04:25:10.970Z,25.10
2019-01-02T04:29:13.344Z,20.03
2019-01-02T04:33:15.707Z,20.23
2019-01-02T04:37:18.052Z,26.40
2019-01-02T04:41:20.435Z,25.13
2019-01-02T04:45:22.771Z,30.00
2019-01-02T04:49:25.163Z,23.93
2019-01-02T04:53:27.535Z,23.30
2019-01-02T04:57:29.820Z,29.47
2019-01-02T05:01:32.143Z,21.30
2019-01-02T05:05:34.454Z,19.23
2019-01-02T05:09:36.792Z,26.70
2019-01-02T05:13:39.169Z,25.57
2019-01-02T05:17:41.414Z,24.23
2019-01-02T05:21:43.765Z,25.93
2019-01-02T05:25:46.128Z,20.10
2019-01-02T05:29:48.492Z,19.23
2019-01-02T05:33:50.856Z,22.33
2019-01-02T05:37:54.005Z,26.43
2019-01-02T05:41:55.589Z,24.97
2019-01-02T05:45:57.959Z,23.20
2019-01-02T05:50:00.333Z,21.73
2019-01-02T05:54:02.679Z,28.27
2019-01-02T05:58:05.054Z,27.17
2019-01-02T06:02:07.438Z,21.23
2019-01-02T06:06:09.788Z,28.80
2019-01-02T06:10:13.892Z,26.60
2019-01-02T06:14:16.268Z,26.53
2019-01-02T06:18:18.608Z,28.63
2019-01-02T06:22:20.990Z,24.23
2019-01-02T06:26:23.338Z,31.23
2019-01-02T06:30:25.698Z,30.63
2019-01-02T06:34:28.020Z,19.20
2019-01-02T06:38:30.370Z,27.57
2019-01-02T06:42:32.742Z,33.43
2019-01-02T06:46:35.103Z,22.07
2019-01-02T06:50:37.414Z,25.50
2019-01-02T06:54:39.762Z,28.30
2019-01-02T06:58:42.130Z,39.67
2019-01-02T07:02:44.541Z,20.33
2019-01-02T07:06:46.879Z,23.37
2019-01-02T07:10:49.181Z,34.23
2019-01-02T07:14:51.568Z,34.93
2019-01-02T07:18:53.913Z,19.87
2019-01-02T07:22:56.263Z,29.60
2019-01-02T07:26:58.638Z,32.73
2019-01-02T07:31:00.957Z,31.03
2019-01-02T07:35:23.502Z,35.03
2019-01-02T07:39:41.780Z,24.43
2019-01-02T07:43:56.239Z,26.53
2019-01-02T07:50:18.912Z,36.10
2019-01-02T07:54:39.432Z,30.03
2019-01-02T07:58:57.681Z,29.13
2019-01-02T08:07:19.448Z,34.37
2019-01-02T08:12:31.767Z,31.57
2019-01-02T08:17:18.499Z,25.53
2019-01-02T08:21:36.933Z,29.37
2019-01-02T08:27:57.871Z,26.73
2019-01-02T08:32:25.217Z,22.30
2019-01-02T08:38:00.762Z,25.40
2019-01-02T08:42:21.298Z,29.50
2019-01-02T08:47:37.303Z,28.10
2019-01-02T08:52:08.689Z,24.40
2019-01-02T08:58:27.774Z,22.50
2019-01-02T09:03:07.438Z,33.50
2019-01-02T09:07:26.766Z,26.03
2019-01-02T09:11:47.046Z,20.27
2019-01-02T09:18:03.905Z,19.30
2019-01-02T09:22:41.958Z,24.83
2019-01-02T09:27:00.542Z,19.80
2019-01-02T09:31:31.350Z,22.70
2019-01-02T09:35:45.763Z,18.70
2019-01-02T09:40:06.017Z,27.20
2019-01-02T09:46:22.524Z,21.00
2019-01-02T09:50:43.835Z,28.60
2019-01-02T09:55:08.302Z,32.83
2019-01-02T09:59:37.525Z,30.30
2019-01-02T10:03:53.794Z,31.03
2019-01-02T10:08:12.246Z,34.43
2019-01-02T10:12:36.720Z,21.47
2019-01-02T10:16:51.751Z,22.20
2019-01-02T10:21:09.775Z,31.43
2019-01-02T10:25:25.857Z,17.90
2019-01-02T10:30:42.497Z,27.97
2019-01-02T10:35:56.782Z,23.53
2019-01-02T10:40:21.442Z,29.80
2019-01-02T10:45:39.671Z,26.17
2019-01-02T10:52:00.839Z,22.70
2019-01-02T10:56:29.863Z,20.90
2019-01-02T11:01:44.566Z,16.40
2019-01-02T11:05:58.518Z,19.83
2019-01-02T11:10:21.765Z,25.10
2019-01-02T11:15:20.666Z,14.80
2019-01-02T11:21:46.801Z,19.40
2019-01-02T11:26:08.158Z,23.37
2019-01-02T11:30:39.343Z,14.00
2019-01-02T11:34:51.838Z,14.97
2019-01-02T11:39:35.533Z,13.77
2019-01-02T11:45:18.848Z,21.40
2019-01-02T11:49:21.299Z,16.83
2019-01-02T11:53:23.733Z,18.63
2019-01-02T11:57:26.172Z,12.80
2019-01-02T12:01:29.388Z,17.13
2019-01-02T12:05:31.794Z,19.50
2019-01-02T12:09:34.218Z,13.33
2019-01-02T12:13:36.597Z,12.43
2019-01-02T12:17:38.998Z,12.50
2019-01-02T12:21:41.406Z,9.47
2019-01-02T12:25:43.766Z,9.97
2019-01-02T12:29:46.202Z,9.97
2019-01-02T12:33:48.545Z,9.93
2019-01-02T12:37:50.937Z,12.57
2019-01-02T12:41:53.297Z,9.10
2019-01-02T12:45:55.978Z,11.70
2019-01-02T12:49:58.346Z,9.70
2019-01-02T12:54:00.722Z,6.10
2019-01-02T12:58:03.143Z,7.47
2019-01-02T13:02:35.042Z,5.53
2019-01-02T13:08:54.371Z,8.30
2019-01-02T13:13:09.207Z,13.53
2019-01-02T13:17:22.654Z,6.33
2019-01-02T13:22:08.021Z,8.80
2019-01-02T13:26:24.240Z,14.60
2019-01-02T13:32:43.138Z,8.90
2019-01-02T13:37:56.120Z,5.60
2019-01-02T13:42:22.895Z,5.93
2019-01-02T13:46:38.029Z,13.03
2019-01-02T13:50:47.696Z,6.73
2019-01-02T13:54:50.956Z,12.63
2019-01-02T13:58:53.302Z,7.30
2019-01-02T14:02:55.630Z,8.30
2019-01-02T14:06:57.951Z,12.23
2019-01-02T14:11:00.281Z,19.63
2019-01-02T14:15:02.724Z,7.13
2019-01-02T14:19:05.154Z,4.73
2019-01-02T14:23:07.451Z,5.60
2019-01-02T14:27:09.790Z,6.43
2019-01-02T14:31:12.661Z,7.47
2019-01-02T14:35:15.002Z,7.80
2019-01-02T14:39:17.360Z,9.53
2019-01-02T14:43:19.705Z,11.70
2019-01-02T14:47:22.086Z,6.83
2019-01-02T14:51:24.437Z,8.40
2019-01-02T14:55:26.835Z,5.13
2019-01-02T14:59:29.226Z,6.57
2019-01-02T15:03:31.558Z,5.97
2019-01-02T15:07:33.994Z,7.67
2019-01-02T15:11:36.945Z,5.23
2019-01-02T15:15:39.316Z,12.67
2019-01-02T15:19:41.645Z,6.90
2019-01-02T15:23:44.038Z,7.07
2019-01-02T15:27:46.358Z,6.30
2019-01-02T15:31:48.944Z,12.37
2019-01-02T15:35:51.350Z,8.70
2019-01-02T15:39:53.810Z,6.73
2019-01-02T15:43:56.154Z,4.70
2019-01-02T15:47:58.469Z,5.50
2019-01-02T15:52:01.363Z,5.03
2019-01-02T15:56:03.785Z,9.10
2019-01-02T16:00:09.250Z,10.13
2019-01-02T16:08:36.679Z,9.30
2019-01-02T16:12:39.016Z,8.80
2019-01-02T16:16:42.415Z,15.70
2019-01-02T16:20:43.758Z,6.13
2019-01-02T16:24:46.119Z,6.03
2019-01-02T16:28:48.410Z,6.77
2019-01-02T16:32:50.711Z,9.60
2019-01-02T16:36:53.099Z,10.10
2019-01-02T16:40:55.419Z,8.53
2019-01-02T16:44:58.408Z,5.60
2019-01-02T16:49:00.781Z,8.33
2019-01-02T16:53:03.865Z,3.50
2019-01-02T16:57:06.241Z,4.40
2019-01-02T17:01:10.150Z,15.57
2019-01-02T17:05:12.563Z,3.83
2019-01-02T17:09:14.996Z,10.33
2019-01-02T17:13:17.397Z,7.50
2019-01-02T17:21:44.888Z,13.97
2019-01-02T17:25:47.206Z,8.13
2019-01-02T17:29:49.559Z,7.53
2019-01-02T17:33:52.569Z,6.83
2019-01-02T17:37:54.986Z,15.90
2019-01-02T17:41:57.412Z,7.30
2019-01-02T17:50:25.163Z,3.43
2019-01-02T17:54:27.618Z,8.97
2019-01-02T17:58:29.968Z,6.53
2019-01-02T18:02:32.380Z,5.50
2019-01-02T18:06:34.758Z,6.17
2019-01-02T18:10:38.299Z,6.30
2019-01-02T18:14:40.591Z,6.20
2019-01-02T18:18:43.486Z,8.33
2019-01-02T18:22:45.949Z,6.23
2019-01-02T18:26:48.337Z,4.70
2019-01-02T18:30:50.715Z,5.27
2019-01-02T18:34:53.233Z,9.20
2019-01-02T18:38:55.697Z,8.23
2019-01-02T18:42:58.076Z,6.57
2019-01-02T18:47:00.524Z,4.50
2019-01-02T18:51:04.176Z,10.37
2019-01-02T18:55:06.743Z,5.97
2019-01-02T18:59:09.071Z,6.20
2019-01-02T19:03:11.434Z,8.08
2019-01-02T19:07:14.763Z,4.37
2019-01-02T19:11:16.111Z,11.47
2019-01-02T19:15:18.463Z,4.90
2019-01-02T19:19:20.868Z,7.07
2019-01-02T19:23:23.378Z,9.47
2019-01-02T19:27:25.778Z,6.83
2019-01-02T19:31:28.179Z,7.20
2019-01-02T19:35:30.655Z,5.97
2019-01-02T19:39:33.838Z,5.73
2019-01-02T19:43:36.159Z,7.33
2019-01-02T19:47:38.660Z,13.60
2019-01-02T19:51:41.047Z,12.80
2019-01-02T19:55:43.523Z,4.77
2019-01-02T19:59:45.903Z,7.53
2019-01-02T20:03:48.342Z,12.83
2019-01-02T20:07:50.707Z,8.53
2019-01-02T20:11:53.032Z,14.83
2019-01-02T20:15:56.410Z,9.53
2019-01-02T20:19:59.014Z,16.37
2019-01-02T20:24:01.547Z,8.20
2019-01-02T20:28:04.037Z,10.17
2019-01-02T20:32:06.444Z,5.93
2019-01-02T20:36:08.874Z,6.23
2019-01-02T20:40:11.285Z,4.33
2019-01-02T20:44:13.823Z,13.43
2019-01-02T20:48:16.287Z,6.60
2019-01-02T20:52:18.679Z,10.63
2019-01-02T20:56:21.073Z,6.63
2019-01-02T21:00:23.515Z,8.47
2019-01-02T21:04:25.896Z,10.83
2019-01-02T21:08:28.270Z,5.00
2019-01-02T21:12:30.704Z,2.93
2019-01-02T21:16:33.106Z,4.53
2019-01-02T21:20:35.566Z,8.20
2019-01-02T21:24:38.000Z,5.60
2019-01-02T21:28:40.373Z,5.00
2019-01-02T21:32:42.809Z,6.53
2019-01-02T21:36:45.174Z,8.87
2019-01-02T21:40:48.938Z,8.53
2019-01-02T21:44:51.336Z,7.27
2019-01-02T21:48:53.683Z,8.47
2019-01-02T21:52:56.053Z,9.50
2019-01-02T21:56:58.447Z,6.60
2019-01-02T22:01:00.870Z,9.03
2019-01-02T22:05:03.407Z,6.17
2019-01-02T22:09:05.997Z,8.10
2019-01-02T22:13:08.368Z,7.17
2019-01-02T22:17:10.792Z,10.57
2019-01-02T22:25:40.443Z,5.00
2019-01-02T22:29:42.868Z,3.90
2019-01-02T22:33:45.208Z,4.03
2019-01-02T22:37:47.577Z,9.00
2019-01-02T22:41:49.948Z,7.33
2019-01-02T22:45:52.360Z,3.73
2019-01-02T22:49:54.792Z,6.37
2019-01-02T22:53:57.121Z,3.80
2019-01-02T22:57:59.456Z,4.50
2019-01-02T23:02:09.167Z,8.73
2019-01-02T23:06:19.412Z,6.23
2019-01-02T23:10:29.226Z,13.07
2019-01-02T23:14:36.112Z,9.40
2019-01-02T23:19:47.630Z,3.87
2019-01-02T23:23:55.672Z,7.37
2019-01-02T23:29:01.856Z,6.47
2019-01-02T23:33:15.650Z,6.13
2019-01-02T23:39:32.983Z,6.93
2019-01-02T23:45:46.421Z,8.83
2019-01-02T23:52:01.127Z,6.93
2019-01-02T23:56:08.022Z,5.97
